Time;durP1;ratioP1;P1;durP2;ratioP2;P2;SDS_P1;SDS_P2;PMS_P1;PMS_P2;Temp;Humidity;BMP_temperature;BMP_pressure;BME280_temperature;BME280_humidity;BME280_pressure;Samples;Min_cycle;Max_cycle;Signal;HPM_P1;HPM_P2
2021/05/10 00:02:20;;;;;;;7.63;3.20;;;16.20;99.90;;;;;;5052568;28;20048;-57
2021/05/10 00:05:23;;;;;;;7.53;3.35;;;16.10;99.90;;;;;;5052248;28;20040;-55
2021/05/10 00:08:27;;;;;;;11.10;3.72;;;16.00;99.90;;;;;;5052369;28;20047;-58
2021/05/10 00:11:34;;;;;;;9.80;3.33;;;15.90;99.90;;;;;;5052023;28;20063;-57
2021/05/10 00:14:41;;;;;;;8.35;4.07;;;15.80;99.90;;;;;;5052009;28;20044;-56
2021/05/10 00:17:45;;;;;;;11.63;5.20;;;15.80;99.90;;;;;;5052029;28;20052;-57
2021/05/10 00:20:50;;;;;;;9.07;4.20;;;15.80;99.90;;;;;;5051915;28;20120;-57
2021/05/10 00:23:54;;;;;;;9.60;4.13;;;15.70;99.90;;;;;;5051216;28;20044;-55
2021/05/10 00:26:58;;;;;;;9.15;4.35;;;15.60;99.90;;;;;;5052244;28;20502;-56
2021/05/10 00:30:04;;;;;;;11.60;4.40;;;15.60;99.90;;;;;;5051615;28;20494;-58
2021/05/10 00:33:09;;;;;;;8.45;4.20;;;15.50;99.90;;;;;;5048704;28;20044;-54
2021/05/10 00:36:13;;;;;;;10.75;4.15;;;15.50;99.90;;;;;;5052079;28;20060;-56
2021/05/10 00:39:17;;;;;;;7.63;4.72;;;15.40;99.90;;;;;;5041582;28;20036;-53
2021/05/10 00:42:21;;;;;;;7.07;4.43;;;15.40;99.90;;;;;;5037737;28;20530;-58
2021/05/10 00:45:26;;;;;;;11.55;5.00;;;15.30;99.90;;;;;;5035281;28;20043;-57
2021/05/10 00:48:30;;;;;;;6.57;4.30;;;15.20;99.90;;;;;;5051873;28;20047;-56
2021/05/10 00:51:34;;;;;;;10.73;4.57;;;15.20;99.90;;;;;;5051624;28;20064;-55
2021/05/10 00:54:39;;;;;;;8.07;4.35;;;15.20;99.90;;;;;;5051950;28;20043;-57
2021/05/10 00:58:01;;;;;;;9.77;4.40;;;15.10;99.90;;;;;;5051845;28;20040;-58
2021/05/10 01:01:06;;;;;;;12.32;4.72;;;15.10;99.90;;;;;;5051280;28;20411;-58
2021/05/10 01:04:10;;;;;;;7.25;3.92;;;15.10;99.90;;;;;;5051457;28;20036;-57
2021/05/10 01:07:16;;;;;;;8.32;3.92;;;15.10;99.90;;;;;;5051834;28;20051;-53
2021/05/10 01:10:22;;;;;;;10.65;4.65;;;15.00;99.90;;;;;;5051014;28;20036;-56
2021/05/10 01:13:27;;;;;;;9.27;4.10;;;15.00;99.90;;;;;;5031749;28;20056;-56
2021/05/10 01:16:30;;;;;;;11.23;4.00;;;15.00;99.90;;;;;;5030396;28;20052;-58
2021/05/10 01:19:35;;;;;;;10.98;4.88;;;14.90;99.90;;;;;;5031223;28;20419;-56
2021/05/10 01:22:44;;;;;;;7.65;5.00;;;14.90;99.90;;;;;;5031175;28;20442;-54
2021/05/10 01:25:50;;;;;;;9.07;4.78;;;14.80;99.90;;;;;;5030946;28;20052;-55
2021/05/10 01:28:54;;;;;;;7.07;3.97;;;14.80;99.90;;;;;;5030744;28;20048;-55
2021/05/10 01:31:58;;;;;;;10.88;4.60;;;14.90;99.90;;;;;;5030915;28;20061;-55
2021/05/10 01:35:06;;;;;;;9.95;4.88;;;14.70;99.90;;;;;;5030659;28;20107;-57
2021/05/10 01:38:10;;;;;;;10.18;4.32;;;14.60;99.90;;;;;;5030826;28;20032;-58
2021/05/10 01:41:15;;;;;;;12.05;4.70;;;14.50;99.90;;;;;;5030650;28;20048;-54
2021/05/10 01:44:19;;;;;;;7.28;4.40;;;14.40;99.90;;;;;;5030688;28;20044;-57
2021/05/10 01:47:23;;;;;;;7.72;4.00;;;14.40;99.90;;;;;;5030754;28;20036;-57
2021/05/10 01:50:28;;;;;;;7.35;4.68;;;14.40;99.90;;;;;;5030783;28;20052;-56
2021/05/10 01:53:33;;;;;;;10.80;4.35;;;14.40;99.90;;;;;;5039801;28;20040;-53
2021/05/10 01:56:37;;;;;;;10.57;4.45;;;14.30;99.90;;;;;;5050516;28;20063;-54
2021/05/10 01:59:42;;;;;;;8.70;4.72;;;14.30;99.90;;;;;;5047643;28;20053;-59
2021/05/10 02:02:47;;;;;;;8.20;4.28;;;14.30;99.90;;;;;;5039569;28;20099;-57
2021/05/10 02:05:51;;;;;;;7.28;4.55;;;14.30;99.90;;;;;;5046080;28;20506;-58
2021/05/10 02:08:55;;;;;;;9.93;4.68;;;14.30;99.90;;;;;;5043905;28;20044;-57
2021/05/10 02:11:59;;;;;;;10.00;4.75;;;14.40;99.90;;;;;;5029952;28;20053;-56
2021/05/10 02:15:06;;;;;;;8.40;5.05;;;14.40;99.90;;;;;;5029885;28;20044;-59
2021/05/10 02:18:12;;;;;;;10.05;4.82;;;14.30;99.90;;;;;;5042064;28;20039;-54
2021/05/10 02:21:15;;;;;;;13.25;4.78;;;14.30;99.90;;;;;;5050112;28;20112;-55
2021/05/10 02:24:19;;;;;;;16.95;5.40;;;14.30;99.90;;;;;;5049499;28;20044;-55
2021/05/10 02:27:23;;;;;;;10.15;4.90;;;14.30;99.90;;;;;;5050105;28;20060;-59
2021/05/10 02:30:29;;;;;;;11.77;5.88;;;14.20;99.90;;;;;;5049637;28;20048;-58
2021/05/10 02:33:34;;;;;;;8.15;4.78;;;14.20;99.90;;;;;;5030176;28;20044;-56
2021/05/10 02:36:38;;;;;;;12.48;4.97;;;14.10;99.90;;;;;;5029998;28;20526;-57
2021/05/10 02:39:42;;;;;;;11.05;5.18;;;14.10;99.90;;;;;;5029325;28;20506;-57
2021/05/10 02:42:46;;;;;;;7.55;5.20;;;14.00;99.90;;;;;;5030054;28;20056;-56
2021/05/10 02:45:54;;;;;;;8.43;5.13;;;13.90;99.90;;;;;;5029583;28;20049;-59
2021/05/10 02:48:59;;;;;;;10.38;5.65;;;13.80;99.90;;;;;;5028915;28;20040;-54
2021/05/10 02:52:03;;;;;;;9.52;5.72;;;13.70;99.90;;;;;;5029148;28;20044;-58
2021/05/10 02:55:08;;;;;;;14.20;5.90;;;13.70;99.90;;;;;;5029632;28;20060;-57
2021/05/10 02:58:13;;;;;;;9.63;5.22;;;13.60;99.90;;;;;;5029321;28;20291;-53
2021/05/10 03:01:17;;;;;;;6.63;5.05;;;13.50;99.90;;;;;;5028000;28;20550;-54
2021/05/10 03:04:21;;;;;;;10.68;5.43;;;13.50;99.90;;;;;;5029247;28;20041;-56
2021/05/10 03:07:26;;;;;;;8.75;5.43;;;13.50;99.90;;;;;;5028855;28;20040;-56
2021/05/10 03:10:29;;;;;;;11.82;6.22;;;13.50;99.90;;;;;;5042364;28;20052;-54
2021/05/10 03:13:33;;;;;;;19.10;7.90;;;13.40;99.90;;;;;;5049342;28;20116;-54
2021/05/10 03:16:37;;;;;;;9.98;6.13;;;13.20;99.90;;;;;;5049351;28;20048;-59
2021/05/10 03:19:41;;;;;;;11.75;6.70;;;13.20;99.90;;;;;;5048309;28;20048;-58
2021/05/10 03:22:47;;;;;;;10.52;6.50;;;13.10;99.90;;;;;;5049424;28;20403;-57
2021/05/10 03:25:51;;;;;;;11.98;6.47;;;13.00;99.90;;;;;;5048833;28;20411;-54
2021/05/10 03:28:55;;;;;;;12.80;7.47;;;13.00;99.90;;;;;;5049508;28;20366;-59
2021/05/10 03:31:59;;;;;;;11.00;7.07;;;12.90;99.90;;;;;;5048918;28;20526;-58
2021/05/10 03:35:05;;;;;;;16.88;7.55;;;12.90;99.90;;;;;;5049011;28;20048;-55
2021/05/10 03:38:09;;;;;;;12.65;8.05;;;12.80;99.90;;;;;;5049153;28;20064;-57
2021/05/10 03:41:13;;;;;;;12.25;7.75;;;12.80;99.90;;;;;;5048630;28;20554;-54
2021/05/10 03:44:17;;;;;;;13.10;8.35;;;12.60;99.90;;;;;;5048856;28;20085;-58
2021/05/10 03:47:32;;;;;;;12.57;7.25;;;12.50;99.90;;;;;;5049034;28;20051;-58
2021/05/10 03:50:36;;;;;;;11.27;6.90;;;12.40;99.90;;;;;;5048381;28;20048;-57
2021/05/10 03:53:40;;;;;;;11.13;7.35;;;12.40;99.90;;;;;;5048995;28;20047;-56
2021/05/10 03:56:44;;;;;;;12.85;7.82;;;12.30;99.90;;;;;;5048910;28;20128;-55
2021/05/10 03:59:48;;;;;;;10.55;7.70;;;12.20;99.90;;;;;;5051264;28;20052;-57
2021/05/10 04:02:53;;;;;;;12.32;7.43;;;12.20;99.90;;;;;;5052227;28;20047;-57
2021/05/10 04:15:46;;;;;;;10.80;7.00;;;12.00;99.90;;;;;;5052461;28;19916;-54
2021/05/10 04:18:51;;;;;;;15.38;6.93;;;12.10;99.90;;;;;;5051481;28;20044;-58
2021/05/10 04:21:55;;;;;;;16.08;8.40;;;12.10;99.90;;;;;;5051849;28;20510;-58
2021/05/10 04:24:59;;;;;;;11.27;6.55;;;12.10;99.90;;;;;;5052255;28;20064;-53
2021/05/10 04:28:03;;;;;;;12.40;7.20;;;12.00;99.90;;;;;;5052264;28;20056;-57
2021/05/10 04:31:07;;;;;;;12.98;7.95;;;12.00;99.90;;;;;;5051446;28;20044;-55
2021/05/10 04:34:11;;;;;;;14.93;8.48;;;11.90;99.90;;;;;;5050823;28;20415;-58
2021/05/10 04:37:16;;;;;;;13.38;7.00;;;12.00;99.90;;;;;;5052131;28;20399;-57
2021/05/10 04:40:20;;;;;;;18.73;8.43;;;12.10;99.90;;;;;;5050968;28;20048;-59
2021/05/10 04:43:25;;;;;;;8.65;6.13;;;12.10;99.90;;;;;;5051548;28;20052;-59
2021/05/10 04:46:30;;;;;;;8.60;5.85;;;12.30;99.90;;;;;;5050730;28;20040;-54
2021/05/10 04:49:34;;;;;;;13.13;6.65;;;12.40;99.90;;;;;;5038302;28;20064;-53
2021/05/10 04:52:38;;;;;;;11.88;6.40;;;13.80;99.90;;;;;;5030945;28;20052;-55
2021/05/10 04:55:43;;;;;;;8.43;4.95;;;16.10;99.90;;;;;;5031383;28;20510;-55
2021/05/10 04:58:46;;;;;;;8.23;3.72;;;18.00;99.90;;;;;;5031597;28;20053;-53
2021/05/10 05:01:51;;;;;;;6.97;4.03;;;19.30;99.90;;;;;;5037992;28;20041;-56
2021/05/10 05:04:55;;;;;;;7.13;4.20;;;20.30;99.90;;;;;;5031483;28;20040;-55
2021/05/10 05:07:59;;;;;;;7.40;3.50;;;21.30;99.90;;;;;;5031903;28;20052;-55
2021/05/10 05:11:03;;;;;;;9.40;3.75;;;22.20;99.90;;;;;;5049717;28;20048;-56
2021/05/10 05:14:08;;;;;;;8.95;4.53;;;22.50;99.90;;;;;;5036498;28;20037;-58
2021/05/10 05:17:12;;;;;;;7.93;3.90;;;23.00;99.90;;;;;;5035824;28;20044;-57
2021/05/10 05:20:18;;;;;;;6.80;3.70;;;23.00;99.90;;;;;;5043779;28;20044;-54
2021/05/10 05:23:26;;;;;;;9.57;3.80;;;23.10;99.90;;;;;;5030293;28;20052;-58
2021/05/10 05:26:30;;;;;;;6.85;3.10;;;23.70;99.90;;;;;;5030398;28;20052;-54
2021/05/10 05:29:35;;;;;;;7.75;3.15;;;24.20;99.90;;;;;;5030660;28;20060;-55
2021/05/10 05:32:38;;;;;;;6.53;3.30;;;25.10;99.90;;;;;;5039236;28;20044;-55
2021/05/10 05:35:43;;;;;;;5.57;3.40;;;25.60;99.90;;;;;;5040838;28;20045;-56
2021/05/10 05:38:47;;;;;;;9.75;3.25;;;25.70;99.90;;;;;;5030788;28;20052;-55
2021/05/10 05:41:52;;;;;;;9.10;3.50;;;26.30;99.90;;;;;;5032084;28;20037;-55
2021/05/10 05:44:56;;;;;;;7.10;3.53;;;26.50;99.30;;;;;;5029913;28;20531;-54
2021/05/10 05:48:01;;;;;;;13.57;4.10;;;26.30;98.40;;;;;;5030978;28;20064;-57
2021/05/10 05:51:08;;;;;;;6.60;3.40;;;26.00;99.00;;;;;;5028560;28;20052;-56
2021/05/10 05:54:13;;;;;;;7.25;3.08;;;26.90;98.60;;;;;;5029216;28;20044;-58
2021/05/10 05:57:18;;;;;;;6.47;3.60;;;27.20;97.90;;;;;;5034096;28;20064;-55
2021/05/10 06:00:22;;;;;;;8.77;3.60;;;27.20;97.40;;;;;;5029145;28;20052;-54
2021/05/10 06:03:27;;;;;;;7.40;3.30;;;27.10;97.60;;;;;;5029169;28;20061;-55
2021/05/10 06:06:31;;;;;;;7.78;3.15;;;26.80;97.50;;;;;;5030089;28;20049;-54
2021/05/10 06:09:35;;;;;;;9.48;4.15;;;26.10;97.50;;;;;;5031833;28;20048;-55
2021/05/10 06:12:43;;;;;;;16.67;3.17;;;24.40;98.80;;;;;;5030166;28;20040;-55
2021/05/10 06:15:48;;;;;;;12.07;3.40;;;24.00;99.90;;;;;;5043263;28;20052;-53
2021/05/10 06:18:52;;;;;;;9.57;3.70;;;24.00;99.90;;;;;;5047446;28;20044;-55
2021/05/10 06:21:56;;;;;;;9.75;3.72;;;22.90;99.90;;;;;;5044679;28;20039;-55
2021/05/10 06:25:01;;;;;;;9.43;3.25;;;23.90;99.90;;;;;;5038920;28;20097;-56
2021/05/10 06:28:05;;;;;;;7.43;3.13;;;24.60;99.90;;;;;;5039178;28;20123;-55
2021/05/10 06:31:11;;;;;;;8.55;4.22;;;22.60;99.90;;;;;;5041686;28;20055;-55
2021/05/10 06:34:15;;;;;;;7.82;3.33;;;20.80;99.90;;;;;;5047895;28;20056;-54
2021/05/10 06:37:20;;;;;;;7.68;3.22;;;22.00;99.90;;;;;;5047300;28;20056;-54
2021/05/10 06:40:24;;;;;;;8.10;3.28;;;22.10;99.90;;;;;;5046362;28;20044;-56
2021/05/10 06:43:28;;;;;;;7.28;3.50;;;21.60;99.90;;;;;;5045435;28;20048;-54
2021/05/10 06:46:32;;;;;;;8.57;3.45;;;21.10;99.90;;;;;;5036476;28;20036;-54
2021/05/10 06:49:36;;;;;;;8.18;3.67;;;19.50;99.90;;;;;;5041252;28;20044;-53
2021/05/10 06:52:40;;;;;;;9.02;3.40;;;19.80;99.90;;;;;;5036577;28;20052;-53
2021/05/10 06:55:44;;;;;;;8.10;3.70;;;20.20;99.90;;;;;;5044105;28;20410;-57
2021/05/10 06:58:48;;;;;;;9.18;4.15;;;20.20;99.90;;;;;;5041759;28;20497;-55
2021/05/10 07:01:53;;;;;;;7.45;3.50;;;21.00;99.90;;;;;;5046198;28;20526;-55
2021/05/10 07:04:57;;;;;;;5.75;3.95;;;20.80;99.90;;;;;;5048211;28;20407;-54
2021/05/10 07:08:10;;;;;;;9.45;4.10;;;20.60;99.90;;;;;;5048408;28;20509;-56
2021/05/10 07:11:14;;;;;;;7.95;3.60;;;21.10;99.90;;;;;;5047816;28;20048;-54
2021/05/10 07:14:19;;;;;;;6.80;3.97;;;21.20;99.90;;;;;;5047113;28;20529;-55
2021/05/10 07:17:24;;;;;;;6.05;3.30;;;20.70;99.90;;;;;;5040395;28;20064;-54
2021/05/10 07:20:29;;;;;;;9.98;3.90;;;20.80;99.90;;;;;;5041631;28;20068;-53
2021/05/10 07:23:35;;;;;;;13.80;3.90;;;22.90;99.90;;;;;;5045671;28;20052;-54
2021/05/10 07:26:39;;;;;;;10.07;3.88;;;21.80;99.90;;;;;;5049011;28;20036;-53
2021/05/10 07:29:43;;;;;;;9.38;3.10;;;21.80;99.90;;;;;;5046789;28;20047;-53
2021/05/10 07:32:47;;;;;;;7.70;3.30;;;22.50;99.90;;;;;;5039395;28;20067;-51
2021/05/10 07:35:52;;;;;;;8.77;3.45;;;23.10;99.90;;;;;;5051744;28;20044;-54
2021/05/10 07:38:55;;;;;;;6.95;3.15;;;24.40;99.90;;;;;;5033624;28;20044;-53
2021/05/10 07:41:59;;;;;;;3.85;2.75;;;25.30;99.90;;;;;;5050653;28;20395;-54
2021/05/10 07:45:04;;;;;;;10.07;2.85;;;26.00;99.00;;;;;;5052598;28;20044;-54
2021/05/10 07:48:09;;;;;;;6.53;3.00;;;25.50;98.20;;;;;;5041698;28;20044;-50
2021/05/10 07:51:13;;;;;;;4.38;2.70;;;26.10;98.40;;;;;;5044713;28;20044;-54
2021/05/10 07:54:17;;;;;;;7.40;2.97;;;23.40;99.90;;;;;;5050186;28;20562;-52
2021/05/10 07:57:21;;;;;;;7.82;2.63;;;22.20;99.90;;;;;;5042398;28;20071;-53
2021/05/10 08:00:29;;;;;;;4.60;2.40;;;25.20;99.80;;;;;;5046198;28;20052;-54
2021/05/10 08:03:33;;;;;;;6.95;3.00;;;26.60;98.10;;;;;;5051974;28;20060;-53
2021/05/10 08:06:38;;;;;;;5.78;2.65;;;27.10;96.10;;;;;;5047990;28;20506;-53
2021/05/10 08:09:44;;;;;;;4.40;2.83;;;28.20;95.80;;;;;;5046812;28;20685;-53
2021/05/10 08:12:49;;;;;;;6.13;3.35;;;28.10;94.80;;;;;;5052041;28;20044;-54
2021/05/10 08:15:53;;;;;;;10.82;4.05;;;27.60;94.80;;;;;;5051607;28;20043;-53
2021/05/10 08:18:57;;;;;;;4.68;2.22;;;25.60;96.00;;;;;;5051749;28;20435;-54
2021/05/10 08:22:03;;;;;;;4.05;1.90;;;26.80;95.20;;;;;;5051511;28;20541;-54
2021/05/10 08:25:09;;;;;;;3.55;1.80;;;25.10;95.30;;;;;;5050982;28;20048;-54
2021/05/10 08:28:14;;;;;;;2.92;1.90;;;26.60;94.00;;;;;;5034467;28;20045;-53
2021/05/10 08:31:19;;;;;;;8.25;1.67;;;28.20;92.60;;;;;;5046132;28;20048;-53
2021/05/10 08:34:24;;;;;;;5.35;1.75;;;27.10;93.30;;;;;;5049612;28;20123;-52
2021/05/10 08:37:29;;;;;;;8.02;1.85;;;28.30;92.30;;;;;;5043488;28;20136;-52
2021/05/10 08:40:34;;;;;;;3.78;1.70;;;29.40;91.50;;;;;;5043918;28;20044;-54
2021/05/10 08:43:39;;;;;;;6.15;1.90;;;27.40;92.30;;;;;;5042130;28;20049;-52
2021/05/10 08:46:43;;;;;;;5.05;1.65;;;27.70;91.70;;;;;;5032578;28;20045;-53
2021/05/10 08:49:48;;;;;;;3.85;1.70;;;28.30;91.50;;;;;;5034233;28;20040;-53
2021/05/10 08:52:53;;;;;;;4.32;1.50;;;29.80;90.90;;;;;;5032577;28;20061;-53
2021/05/10 08:55:57;;;;;;;4.45;1.88;;;29.20;89.60;;;;;;5031378;28;20060;-54
2021/05/10 08:59:01;;;;;;;8.90;2.00;;;28.20;90.80;;;;;;5049911;28;20040;-54
2021/05/10 09:02:05;;;;;;;6.10;2.75;;;27.40;91.90;;;;;;5051200;28;20052;-55
2021/05/10 09:05:11;;;;;;;4.13;1.70;;;28.60;91.60;;;;;;5050970;28;20048;-52
2021/05/10 09:08:16;;;;;;;4.45;1.58;;;28.40;90.70;;;;;;5051442;28;20044;-53
2021/05/10 09:11:22;;;;;;;6.20;2.03;;;25.40;93.40;;;;;;5030994;28;20439;-54
2021/05/10 09:14:32;;;;;;;4.78;1.90;;;25.50;92.90;;;;;;5030734;28;20060;-54
2021/05/10 09:17:48;;;;;;;5.53;2.00;;;25.60;93.70;;;;;;5031148;28;20060;-54
2021/05/10 09:20:53;;;;;;;7.75;2.85;;;26.90;92.10;;;;;;5030939;28;20060;-54
2021/05/10 09:23:58;;;;;;;7.32;2.42;;;25.60;92.60;;;;;;5049419;23;20048;-54
2021/05/10 09:27:21;;;;;;;6.90;2.40;;;25.80;93.20;;;;;;5058212;28;20060;-54
2021/05/10 09:30:26;;;;;;;3.10;1.85;;;25.80;93.40;;;;;;5058160;28;20063;-54
2021/05/10 09:33:30;;;;;;;4.25;1.75;;;26.90;93.00;;;;;;5070898;28;20047;-53
2021/05/10 09:36:37;;;;;;;4.63;2.28;;;25.00;93.90;;;;;;5031026;28;20411;-57
2021/05/10 09:39:41;;;;;;;3.75;1.40;;;25.60;93.40;;;;;;5030566;28;20123;-54
2021/05/10 09:42:56;;;;;;;4.85;1.92;;;27.50;91.70;;;;;;5037912;28;20040;-55
2021/05/10 09:46:12;;;;;;;4.90;2.05;;;31.60;89.70;;;;;;5062469;28;20033;-59
2021/05/10 09:49:16;;;;;;;2.53;1.58;;;28.70;90.20;;;;;;5041446;28;20703;-56
2021/05/10 09:52:23;;;;;;;7.10;1.58;;;30.50;90.00;;;;;;5038954;28;20400;-57
2021/05/10 09:55:45;;;;;;;4.20;1.40;;;31.50;86.80;;;;;;5029551;28;20037;-56
2021/05/10 09:58:50;;;;;;;5.65;1.70;;;30.40;81.00;;;;;;5040399;28;20044;-56
2021/05/10 10:01:55;;;;;;;11.05;1.65;;;31.90;83.20;;;;;;5030384;28;20049;-54
2021/05/10 10:04:59;;;;;;;3.15;1.45;;;30.30;82.60;;;;;;5030051;28;20527;-57
2021/05/10 10:08:03;;;;;;;3.00;1.60;;;27.60;85.20;;;;;;5040719;28;20035;-55
2021/05/10 10:11:11;;;;;;;1.45;1.15;;;27.50;86.50;;;;;;5039564;28;20427;-59
2021/05/10 10:14:15;;;;;;;4.07;1.70;;;27.10;85.00;;;;;;5050470;28;20519;-56
2021/05/10 10:17:19;;;;;;;1.98;1.25;;;26.30;83.80;;;;;;5039924;28;20056;-54
2021/05/10 10:20:25;;;;;;;3.35;1.20;;;27.50;83.90;;;;;;5030262;28;20211;-55
2021/05/10 10:23:29;;;;;;;3.13;1.38;;;28.90;77.00;;;;;;5030277;28;20044;-55
2021/05/10 10:26:34;;;;;;;6.55;1.45;;;27.30;80.60;;;;;;4993412;28;20579;-63
2021/05/10 10:29:41;;;;;;;4.85;1.40;;;30.10;80.00;;;;;;5011197;28;21170;-62
2021/05/10 10:32:48;;;;;;;5.40;1.30;;;29.90;78.00;;;;;;5009531;28;20064;-59
2021/05/10 10:35:54;;;;;;;7.53;1.45;;;30.10;77.70;;;;;;5021272;28;20124;-62
2021/05/10 10:39:21;;;;;;;3.47;1.30;;;28.40;78.80;;;;;;5038929;28;20056;-58
2021/05/10 10:42:34;;;;;;;3.13;1.23;;;29.30;79.10;;;;;;5032684;28;20424;-60
2021/05/10 10:45:38;;;;;;;8.75;1.55;;;27.60;80.10;;;;;;5024605;28;20052;-56
2021/05/10 10:48:43;;;;;;;3.65;1.10;;;27.80;80.10;;;;;;5027301;28;20059;-55
2021/05/10 10:51:52;;;;;;;2.08;1.10;;;29.00;81.60;;;;;;5031445;28;20072;-55
2021/05/10 10:55:18;;;;;;;4.60;1.45;;;29.90;77.50;;;;;;5026830;28;20052;-60
2021/05/10 10:58:22;;;;;;;1.23;0.98;;;30.50;75.70;;;;;;5026378;28;20067;-56
2021/05/10 11:01:42;;;;;;;3.58;1.17;;;30.60;74.40;;;;;;5030406;28;20044;-60
2021/05/10 11:05:09;;;;;;;1.70;1.02;;;31.50;74.00;;;;;;5032925;28;20543;-58
2021/05/10 11:08:14;;;;;;;2.20;1.10;;;30.40;74.10;;;;;;5036526;28;20040;-59
2021/05/10 11:11:34;;;;;;;3.40;1.20;;;31.80;72.80;;;;;;5038317;28;20044;-54
2021/05/10 11:14:43;;;;;;;4.72;1.45;;;30.80;75.40;;;;;;5043598;28;20526;-54
2021/05/10 11:17:54;;;;;;;5.18;1.70;;;30.00;77.00;;;;;;5033638;28;20048;-58
2021/05/10 11:20:59;;;;;;;3.57;1.70;;;26.70;79.80;;;;;;5032910;28;20439;-57
2021/05/10 11:24:05;;;;;;;5.88;2.40;;;27.00;82.20;;;;;;5033332;28;20291;-58
2021/05/10 11:27:23;;;;;;;2.38;1.33;;;29.60;81.70;;;;;;5032875;28;20048;-54
2021/05/10 11:31:10;;;;;;;3.20;1.48;;;31.90;78.90;;;;;;5038833;28;20450;-55
2021/05/10 11:34:17;;;;;;;5.60;1.65;;;32.00;76.40;;;;;;5057862;28;20418;-56
2021/05/10 11:37:28;;;;;;;5.82;1.60;;;30.50;78.70;;;;;;5071541;28;20513;-58
2021/05/10 11:40:32;;;;;;;4.60;1.65;;;30.50;79.40;;;;;;5072173;28;20390;-56
2021/05/10 11:43:40;;;;;;;5.47;1.73;;;32.40;77.60;;;;;;5073047;28;20047;-54
2021/05/10 11:46:50;;;;;;;4.40;1.70;;;33.30;75.70;;;;;;5071982;28;20043;-54
2021/05/10 11:49:54;;;;;;;3.83;1.60;;;31.00;76.90;;;;;;5072424;28;20453;-57
2021/05/10 11:53:05;;;;;;;3.70;1.88;;;30.10;77.30;;;;;;5066744;28;20640;-60
2021/05/10 11:56:09;;;;;;;6.53;1.98;;;30.70;76.50;;;;;;5038986;28;20033;-55
2021/05/10 11:59:29;;;;;;;4.32;1.83;;;30.70;78.10;;;;;;5031599;28;20040;-60
2021/05/10 12:02:33;;;;;;;5.80;2.05;;;30.40;78.20;;;;;;5033538;28;20048;-56
2021/05/10 12:05:38;;;;;;;4.88;1.92;;;30.80;81.60;;;;;;5040614;28;20044;-60
2021/05/10 12:08:43;;;;;;;5.28;1.83;;;29.80;78.70;;;;;;5034373;28;20045;-58
2021/05/10 12:11:48;;;;;;;6.78;2.20;;;30.60;77.20;;;;;;5031500;28;20056;-60
2021/05/10 12:15:02;;;;;;;9.95;2.72;;;30.90;79.10;;;;;;5034342;28;20052;-57
2021/05/10 12:18:07;;;;;;;6.70;1.90;;;30.40;79.60;;;;;;4987584;28;20057;-60
2021/05/10 12:21:15;;;;;;;3.80;2.10;;;30.20;80.30;;;;;;5011172;28;20052;-63
2021/05/10 12:24:20;;;;;;;5.60;1.80;;;28.40;84.20;;;;;;5026194;28;20912;-59
2021/05/10 12:27:46;;;;;;;6.13;2.03;;;28.80;82.30;;;;;;5002556;28;20087;-60
2021/05/10 12:30:55;;;;;;;9.10;1.83;;;29.40;80.30;;;;;;5024416;28;20040;-61
2021/05/10 12:34:00;;;;;;;7.15;2.42;;;29.00;81.40;;;;;;5023787;28;20048;-59
2021/05/10 12:37:04;;;;;;;3.58;2.03;;;29.20;81.60;;;;;;5010032;28;20048;-61
2021/05/10 12:40:10;;;;;;;3.83;1.80;;;28.60;80.50;;;;;;5023497;28;20060;-59
2021/05/10 12:43:19;;;;;;;5.15;1.80;;;28.80;82.30;;;;;;5028816;28;20080;-59
2021/05/10 12:46:25;;;;;;;7.70;2.10;;;28.60;81.10;;;;;;5027752;28;20510;-56
2021/05/10 12:49:30;;;;;;;3.72;2.03;;;27.40;83.10;;;;;;5033493;28;20052;-55
2021/05/10 12:52:49;;;;;;;4.43;2.25;;;27.60;82.20;;;;;;5031205;28;20060;-60
2021/05/10 12:55:59;;;;;;;5.18;1.73;;;28.10;82.90;;;;;;5033159;28;20521;-58
2021/05/10 12:59:04;;;;;;;5.32;2.00;;;27.70;82.90;;;;;;5035207;28;20526;-58
2021/05/10 13:02:19;;;;;;;4.15;2.08;;;27.80;83.30;;;;;;5033569;28;20036;-58
2021/05/10 13:05:31;;;;;;;4.30;2.08;;;27.80;83.40;;;;;;5036403;28;20036;-55
2021/05/10 13:08:40;;;;;;;;;;;27.20;83.10;;;;;;5029359;28;20055;-58
2021/05/10 13:11:53;;;;;;;10.80;2.33;;;27.50;84.50;;;;;;5032786;28;19920;-60
2021/05/10 13:14:58;;;;;;;9.25;2.03;;;27.80;84.50;;;;;;5036126;28;20562;-55
2021/05/10 13:18:36;;;;;;;10.25;2.10;;;28.00;84.30;;;;;;5019152;28;20522;-59
2021/05/10 13:31:53;;;;;;;4.05;1.63;;;26.80;86.50;;;;;;5031177;28;20041;-55
2021/05/10 13:35:08;;;;;;;4.00;2.10;;;26.80;84.10;;;;;;5032463;28;20059;-57
2021/05/10 13:38:12;;;;;;;6.40;1.92;;;27.20;87.10;;;;;;5032323;28;20407;-59
2021/05/10 13:41:17;;;;;;;2.33;1.50;;;27.20;86.20;;;;;;5036820;28;20617;-61
2021/05/10 13:44:21;;;;;;;8.45;2.03;;;27.40;85.90;;;;;;5026489;28;20403;-55
2021/05/10 13:47:26;;;;;;;3.60;1.95;;;27.30;86.90;;;;;;5034999;28;20059;-59
2021/05/10 13:50:30;;;;;;;4.65;1.92;;;27.50;84.70;;;;;;5038825;28;20059;-55
2021/05/10 13:53:34;;;;;;;4.15;2.00;;;27.10;85.30;;;;;;5036799;28;20062;-56
2021/05/10 13:56:39;;;;;;;7.45;2.83;;;27.20;87.40;;;;;;5034024;28;20056;-60
2021/05/10 13:59:43;;;;;;;3.13;1.48;;;27.40;86.10;;;;;;5036614;28;20051;-57
2021/05/10 14:02:51;;;;;;;5.07;2.20;;;27.10;85.00;;;;;;5036152;28;20048;-54
2021/05/10 14:05:56;;;;;;;5.00;2.40;;;27.20;86.70;;;;;;5032168;28;20055;-58
2021/05/10 14:09:00;;;;;;;3.45;2.28;;;26.80;85.40;;;;;;5038640;28;20060;-56
2021/05/10 14:12:04;;;;;;;5.82;1.95;;;27.00;87.60;;;;;;5038533;28;20052;-56
2021/05/10 14:15:10;;;;;;;6.70;2.20;;;27.00;86.70;;;;;;5034113;28;20059;-61
2021/05/10 14:18:17;;;;;;;12.10;2.70;;;26.90;86.10;;;;;;5035610;28;20052;-60
2021/05/10 14:24:44;;;;;;;5.60;2.40;;;26.00;88.30;;;;;;5032161;28;20481;-58
2021/05/10 14:27:53;;;;;;;11.90;2.15;;;26.40;89.50;;;;;;5033706;28;20048;-57
2021/05/10 14:31:01;;;;;;;3.03;1.80;;;26.50;88.30;;;;;;5037614;28;20052;-56
2021/05/10 14:34:08;;;;;;;5.75;1.98;;;26.40;88.60;;;;;;5034016;28;20106;-55
2021/05/10 14:37:12;;;;;;;5.85;1.70;;;26.30;88.90;;;;;;5033175;28;20928;-57
2021/05/10 14:40:16;;;;;;;5.78;2.30;;;26.70;89.20;;;;;;5037320;28;20048;-54
2021/05/10 14:43:20;;;;;;;6.80;1.75;;;26.60;87.10;;;;;;5034049;28;20407;-55
2021/05/10 14:46:25;;;;;;;4.40;1.85;;;26.10;87.80;;;;;;5031754;28;20055;-59
2021/05/10 14:49:30;;;;;;;5.25;1.73;;;26.50;88.60;;;;;;5037045;28;20616;-55
2021/05/10 14:52:34;;;;;;;4.32;1.83;;;26.70;87.50;;;;;;5036723;28;20065;-54
2021/05/10 14:55:38;;;;;;;6.35;2.00;;;26.30;89.10;;;;;;5034637;28;20048;-61
2021/05/10 14:58:42;;;;;;;5.00;1.88;;;26.80;89.40;;;;;;5035883;28;21564;-57
2021/05/10 15:01:46;;;;;;;5.45;1.98;;;26.90;87.50;;;;;;5037143;28;20407;-54
2021/05/10 15:04:51;;;;;;;2.85;1.73;;;26.80;88.10;;;;;;5032901;28;20342;-60
2021/05/10 15:07:56;;;;;;;6.13;1.90;;;26.70;87.40;;;;;;5033652;28;20518;-55
2021/05/10 15:11:01;;;;;;;3.75;1.70;;;26.80;88.60;;;;;;5038182;28;20826;-56
2021/05/10 15:14:05;;;;;;;6.43;1.85;;;26.80;88.30;;;;;;5032786;28;20519;-61
2021/05/10 15:17:09;;;;;;;6.25;1.70;;;26.80;85.70;;;;;;5029019;28;20044;-61
2021/05/10 15:20:14;;;;;;;3.83;1.75;;;26.70;88.80;;;;;;5034826;28;20403;-57
2021/05/10 15:23:18;;;;;;;8.40;1.63;;;26.70;89.60;;;;;;5034501;28;20052;-60
2021/05/10 15:26:23;;;;;;;6.50;1.70;;;26.70;88.20;;;;;;5043240;22;20052;-51
2021/05/10 15:29:27;;;;;;;4.28;2.15;;;26.70;87.30;;;;;;5033171;28;20443;-52
2021/05/10 15:32:31;;;;;;;11.00;1.77;;;26.20;87.40;;;;;;5010940;28;20086;-55
2021/05/10 15:35:36;;;;;;;4.25;1.52;;;26.40;86.00;;;;;;5016642;28;20052;-54
2021/05/10 15:38:41;;;;;;;5.35;1.75;;;26.50;85.50;;;;;;5025141;28;20508;-52
2021/05/10 15:41:46;;;;;;;6.30;1.70;;;26.60;85.70;;;;;;5022035;28;20100;-55
2021/05/10 15:44:51;;;;;;;8.23;1.85;;;26.50;87.40;;;;;;5020104;28;20044;-52
2021/05/10 15:47:55;;;;;;;6.28;2.00;;;26.30;85.00;;;;;;5031098;28;20048;-52
2021/05/10 15:51:02;;;;;;;5.45;1.63;;;26.50;85.40;;;;;;5036013;28;20513;-54
2021/05/10 15:54:06;;;;;;;6.70;1.70;;;26.00;87.40;;;;;;5031760;28;20052;-55
2021/05/10 15:57:10;;;;;;;7.88;1.63;;;26.00;86.50;;;;;;5011414;28;20578;-53
2021/05/10 16:00:19;;;;;;;3.72;1.60;;;26.00;85.60;;;;;;5023500;28;20044;-54
2021/05/10 16:03:24;;;;;;;8.70;1.65;;;25.80;86.00;;;;;;5033458;28;20051;-51
2021/05/10 16:06:28;;;;;;;3.60;1.65;;;25.80;86.10;;;;;;5014220;28;20064;-55
2021/05/10 16:09:36;;;;;;;5.80;1.73;;;26.00;86.10;;;;;;5020694;28;20039;-54
2021/05/10 16:12:41;;;;;;;7.53;1.60;;;26.10;86.60;;;;;;5024622;28;20514;-54
2021/05/10 16:15:45;;;;;;;8.15;1.50;;;25.90;87.90;;;;;;5011367;28;20047;-52
2021/05/10 16:18:50;;;;;;;2.83;1.42;;;25.90;87.50;;;;;;5013417;28;20121;-54
2021/05/10 16:21:55;;;;;;;4.90;1.73;;;25.60;87.50;;;;;;5020859;28;20041;-52
2021/05/10 16:25:04;;;;;;;3.58;1.75;;;25.50;86.80;;;;;;4990029;28;20079;-52
2021/05/10 16:28:21;;;;;;;5.07;1.67;;;25.50;88.10;;;;;;5013487;28;20099;-52
2021/05/10 16:31:27;;;;;;;2.40;1.20;;;25.60;87.80;;;;;;5023221;28;20048;-51